createdAt,value
2024-02-24T00:01:45.701Z,7.02
2024-02-24T00:04:12.863Z,7.06
2024-02-24T00:06:40.039Z,7.03
2024-02-24T00:09:07.524Z,6.93
2024-02-24T00:11:34.911Z,6.89
2024-02-24T00:14:02.463Z,6.77
2024-02-24T00:16:29.687Z,6.70
2024-02-24T00:18:58.156Z,6.48
2024-02-24T00:21:25.405Z,6.38
2024-02-24T00:23:52.519Z,6.16
2024-02-24T00:26:19.944Z,6.28
2024-02-24T00:28:46.978Z,6.15
2024-02-24T00:31:14.396Z,6.11
2024-02-24T00:33:42.416Z,6.11
2024-02-24T00:36:10.002Z,6.09
2024-02-24T00:38:37.118Z,6.06
2024-02-24T00:41:04.474Z,6.15
2024-02-24T00:43:31.498Z,6.21
2024-02-24T00:45:58.641Z,6.12
2024-02-24T00:48:25.918Z,6.18
2024-02-24T00:50:53.640Z,6.32
2024-02-24T00:53:20.833Z,6.56
2024-02-24T00:55:48.163Z,6.60
2024-02-24T00:58:15.320Z,6.66
2024-02-24T01:00:42.525Z,6.74
2024-02-24T01:03:09.718Z,6.80
2024-02-24T01:05:37.020Z,6.59
2024-02-24T01:08:04.619Z,6.39
2024-02-24T01:10:31.778Z,6.57
2024-02-24T01:12:58.824Z,6.63
2024-02-24T01:15:25.960Z,6.70
2024-02-24T01:17:57.508Z,6.34
2024-02-24T01:20:26.744Z,6.11
2024-02-24T01:22:55.491Z,6.18
2024-02-24T01:25:22.733Z,6.22
2024-02-24T01:27:51.171Z,6.08
2024-02-24T01:30:18.656Z,6.45
2024-02-24T01:32:46.012Z,6.64
2024-02-24T01:35:13.943Z,6.62
2024-02-24T01:37:41.173Z,6.47
2024-02-24T01:40:08.895Z,6.67
2024-02-24T01:42:36.095Z,6.70
2024-02-24T01:45:03.557Z,6.77
2024-02-24T01:47:30.950Z,6.78
2024-02-24T01:49:59.386Z,6.48
2024-02-24T01:52:27.698Z,6.36
2024-02-24T01:54:57.513Z,6.39
2024-02-24T01:57:29.888Z,5.89
2024-02-24T01:59:57.858Z,5.92
2024-02-24T02:02:25.364Z,6.30
2024-02-24T02:04:52.527Z,6.34
2024-02-24T02:07:19.773Z,6.31
2024-02-24T02:10:00.891Z,6.35
2024-02-24T02:12:29.453Z,6.22
2024-02-24T02:14:56.847Z,6.30
2024-02-24T02:17:24.039Z,6.29
2024-02-24T02:19:51.252Z,6.21
2024-02-24T02:22:19.366Z,5.80
2024-02-24T02:24:47.175Z,6.02
2024-02-24T02:27:14.344Z,6.12
2024-02-24T02:29:41.682Z,6.38
2024-02-24T02:32:11.988Z,6.47
2024-02-24T02:34:39.124Z,6.25
2024-02-24T02:37:09.482Z,6.31
2024-02-24T02:39:36.532Z,6.25
2024-02-24T02:42:03.579Z,6.32
2024-02-24T02:44:30.953Z,6.19
2024-02-24T02:46:57.985Z,6.71
2024-02-24T02:49:25.043Z,7.11
2024-02-24T02:51:52.238Z,7.00
2024-02-24T02:54:19.443Z,7.26
2024-02-24T02:56:46.623Z,7.39
2024-02-24T02:59:13.846Z,7.25
2024-02-24T03:01:40.985Z,7.28
2024-02-24T03:04:08.074Z,7.19
2024-02-24T03:06:35.353Z,7.32
2024-02-24T03:09:02.542Z,7.40
2024-02-24T03:11:32.156Z,7.30
2024-02-24T03:13:59.392Z,7.01
2024-02-24T03:16:26.640Z,6.83
2024-02-24T03:18:53.879Z,6.70
2024-02-24T03:21:27.148Z,6.47
2024-02-24T03:23:54.490Z,5.90
2024-02-24T03:26:21.545Z,5.23
2024-02-24T03:28:48.654Z,4.72
2024-02-24T03:31:15.837Z,4.61
2024-02-24T03:33:43.256Z,4.44
2024-02-24T03:36:14.887Z,4.48
2024-02-24T03:38:43.104Z,4.60
2024-02-24T03:41:10.822Z,4.42
2024-02-24T03:43:38.930Z,4.34
2024-02-24T03:46:07.543Z,4.64
2024-02-24T03:48:35.295Z,4.27
2024-02-24T03:51:02.824Z,4.04
2024-02-24T03:53:30.142Z,3.70
2024-02-24T03:55:57.423Z,3.59
2024-02-24T03:58:24.762Z,3.93
2024-02-24T04:00:54.462Z,3.71
2024-02-24T04:03:21.605Z,3.74
2024-02-24T04:05:49.026Z,3.68
2024-02-24T04:08:16.776Z,3.69
2024-02-24T04:10:46.806Z,3.29
2024-02-24T04:13:14.122Z,3.38
2024-02-24T04:15:49.791Z,3.67
2024-02-24T04:18:17.234Z,3.69
2024-02-24T04:20:48.694Z,3.70
2024-02-24T04:23:15.955Z,3.70
2024-02-24T04:25:43.132Z,3.39
2024-02-24T04:28:11.199Z,3.48
2024-02-24T04:30:39.214Z,3.35
2024-02-24T04:33:07.290Z,3.57
2024-02-24T04:35:34.922Z,3.92
2024-02-24T04:38:07.876Z,3.84
2024-02-24T04:40:36.928Z,3.59
2024-02-24T04:43:04.339Z,3.67
2024-02-24T04:45:31.458Z,3.63
2024-02-24T04:47:59.107Z,3.89
2024-02-24T04:50:26.438Z,3.97
2024-02-24T04:52:53.780Z,3.96
2024-02-24T04:55:21.215Z,3.76
2024-02-24T04:57:48.304Z,3.72
2024-02-24T05:00:15.614Z,3.79
2024-02-24T05:02:42.928Z,3.78
2024-02-24T05:05:11.375Z,3.73
2024-02-24T05:07:38.476Z,3.71
2024-02-24T05:10:05.899Z,3.69
2024-02-24T05:12:33.109Z,3.99
2024-02-24T05:15:00.156Z,3.94
2024-02-24T05:17:27.253Z,3.91
2024-02-24T05:19:54.389Z,4.04
2024-02-24T05:22:21.533Z,4.09
2024-02-24T05:24:48.635Z,4.42
2024-02-24T05:27:15.797Z,4.24
2024-02-24T05:29:47.784Z,4.03
2024-02-24T05:32:18.584Z,4.19
2024-02-24T05:34:45.958Z,4.44
2024-02-24T05:37:13.151Z,4.23
2024-02-24T05:39:40.288Z,4.38
2024-02-24T05:42:07.869Z,4.44
2024-02-24T05:44:35.386Z,4.09
2024-02-24T05:47:02.531Z,4.48
2024-02-24T05:49:29.798Z,4.49
2024-02-24T05:51:57.086Z,4.49
2024-02-24T05:54:24.634Z,4.40
2024-02-24T05:56:52.164Z,4.37
2024-02-24T05:59:20.130Z,4.36
2024-02-24T06:01:47.717Z,4.59
2024-02-24T06:04:17.172Z,4.61
2024-02-24T06:06:44.618Z,4.67
2024-02-24T06:09:11.845Z,4.73
2024-02-24T06:11:39.051Z,4.72
2024-02-24T06:14:06.228Z,4.74
2024-02-24T06:16:33.201Z,4.69
2024-02-24T06:19:00.737Z,4.79
2024-02-24T06:21:29.815Z,4.89
2024-02-24T06:23:56.935Z,4.80
2024-02-24T06:26:24.604Z,4.90
2024-02-24T06:28:51.897Z,4.94
2024-02-24T06:31:19.549Z,4.80
2024-02-24T06:33:46.726Z,4.82
2024-02-24T06:36:14.000Z,4.70
2024-02-24T06:38:41.175Z,4.76
2024-02-24T06:41:08.397Z,4.55
2024-02-24T06:43:35.548Z,4.67
2024-02-24T06:46:02.857Z,4.54
2024-02-24T06:48:30.238Z,4.43
2024-02-24T06:50:57.520Z,4.55
2024-02-24T06:53:24.675Z,4.61
2024-02-24T06:55:51.814Z,4.72
2024-02-24T06:58:18.816Z,4.71
2024-02-24T07:00:45.906Z,4.60
2024-02-24T07:03:13.311Z,4.61
2024-02-24T07:05:40.775Z,4.66
2024-02-24T07:08:07.970Z,4.72
2024-02-24T07:10:35.172Z,4.69
2024-02-24T07:13:02.312Z,4.86
2024-02-24T07:15:29.634Z,5.05
2024-02-24T07:17:56.905Z,4.90
2024-02-24T07:20:24.544Z,5.01
2024-02-24T07:22:51.560Z,5.02
2024-02-24T07:25:18.664Z,4.91
2024-02-24T07:27:45.780Z,4.93
2024-02-24T07:30:13.635Z,5.11
2024-02-24T07:32:42.811Z,5.33
2024-02-24T07:35:11.068Z,5.14
2024-02-24T07:37:38.135Z,5.29
2024-02-24T07:40:05.937Z,5.13
2024-02-24T07:42:33.039Z,5.09
2024-02-24T07:45:00.224Z,5.27
2024-02-24T07:47:27.348Z,5.19
2024-02-24T07:49:54.568Z,4.90
2024-02-24T07:52:21.837Z,4.81
2024-02-24T07:54:48.875Z,4.88
2024-02-24T07:57:15.929Z,4.80
2024-02-24T07:59:43.027Z,4.94
2024-02-24T08:02:10.205Z,5.08
2024-02-24T08:04:37.485Z,5.33
2024-02-24T08:07:04.979Z,5.48
2024-02-24T08:09:32.150Z,5.43
2024-02-24T08:12:01.205Z,5.52
2024-02-24T08:14:28.426Z,5.62
2024-02-24T08:16:55.432Z,5.60
2024-02-24T08:19:22.533Z,5.70
2024-02-24T08:21:50.624Z,5.68
2024-02-24T08:24:17.864Z,5.77
2024-02-24T08:26:46.809Z,5.60
2024-02-24T08:29:14.039Z,5.66
2024-02-24T08:31:41.449Z,5.71
2024-02-24T08:34:08.914Z,5.64
2024-02-24T08:36:37.040Z,5.54
2024-02-24T08:39:04.627Z,5.66
2024-02-24T08:41:38.359Z,5.74
2024-02-24T08:44:06.138Z,5.57
2024-02-24T08:46:33.518Z,5.54
2024-02-24T08:49:01.075Z,5.62
2024-02-24T08:51:28.984Z,5.52
2024-02-24T08:53:56.646Z,5.37
2024-02-24T08:56:24.829Z,5.56
2024-02-24T08:58:52.451Z,5.58
2024-02-24T09:01:22.530Z,5.98
2024-02-24T09:03:49.605Z,6.26
2024-02-24T09:06:17.331Z,6.81
2024-02-24T09:08:44.663Z,8.76
2024-02-24T09:11:12.318Z,9.62
2024-02-24T09:13:39.603Z,10.43
2024-02-24T09:16:06.952Z,10.93
2024-02-24T09:18:37.272Z,9.63
2024-02-24T09:21:04.577Z,8.00
2024-02-24T09:23:31.701Z,7.47
2024-02-24T09:25:58.779Z,7.19
2024-02-24T09:28:25.767Z,7.29
2024-02-24T09:30:53.050Z,6.76
2024-02-24T09:33:20.643Z,6.70
2024-02-24T09:35:48.066Z,6.77
2024-02-24T09:38:23.915Z,6.98
2024-02-24T09:40:51.125Z,6.79
2024-02-24T09:43:19.258Z,7.37
2024-02-24T09:45:50.097Z,7.41
2024-02-24T09:48:17.632Z,7.04
2024-02-24T09:50:45.250Z,6.81
2024-02-24T09:53:12.712Z,6.63
2024-02-24T09:55:39.957Z,6.62
2024-02-24T09:58:12.658Z,6.61
2024-02-24T10:00:39.909Z,6.56
2024-02-24T10:03:07.620Z,6.36
2024-02-24T10:05:37.977Z,6.56
2024-02-24T10:08:05.660Z,6.27
2024-02-24T10:10:33.084Z,6.31
2024-02-24T10:13:00.863Z,6.28
2024-02-24T10:15:27.962Z,6.20
2024-02-24T10:17:56.585Z,6.19
2024-02-24T10:20:23.806Z,6.32
2024-02-24T10:22:51.293Z,6.56
2024-02-24T10:25:18.388Z,6.47
2024-02-24T10:27:46.373Z,6.70
2024-02-24T10:30:14.092Z,6.73
2024-02-24T10:32:43.676Z,6.56
2024-02-24T10:35:12.255Z,6.13
2024-02-24T10:37:56.879Z,5.97
2024-02-24T10:40:26.658Z,6.05
2024-02-24T10:42:55.129Z,6.04
2024-02-24T10:45:23.126Z,5.96
2024-02-24T10:47:52.689Z,5.90
2024-02-24T10:50:20.892Z,6.03
2024-02-24T10:52:50.673Z,6.37
2024-02-24T10:55:24.383Z,6.63
2024-02-24T10:57:56.304Z,6.98
2024-02-24T11:00:27.239Z,7.32
2024-02-24T11:02:54.490Z,7.10
2024-02-24T11:05:21.884Z,7.66
2024-02-24T11:07:49.156Z,7.48
2024-02-24T11:10:23.369Z,7.67
2024-02-24T11:12:53.191Z,7.67
2024-02-24T11:15:26.661Z,7.88
2024-02-24T11:17:57.805Z,8.18
2024-02-24T11:20:40.847Z,8.47
2024-02-24T11:23:34.509Z,8.27
2024-02-24T11:26:10.942Z,8.23
2024-02-24T11:28:39.458Z,7.95
2024-02-24T11:31:07.590Z,8.10
2024-02-24T11:33:40.455Z,8.45
2024-02-24T11:36:08.967Z,8.60
2024-02-24T11:38:36.232Z,8.38
2024-02-24T11:41:07.452Z,8.20
2024-02-24T11:43:34.897Z,8.23
2024-02-24T11:46:05.435Z,8.12
2024-02-24T11:48:32.719Z,8.09
2024-02-24T11:51:00.869Z,7.95
2024-02-24T11:53:29.209Z,7.76
2024-02-24T11:55:56.630Z,8.27
2024-02-24T11:58:23.970Z,9.26
2024-02-24T12:00:51.368Z,9.83
2024-02-24T12:03:18.660Z,9.86
2024-02-24T12:05:45.982Z,9.64
2024-02-24T12:08:17.185Z,9.61
2024-02-24T12:10:44.631Z,9.25
2024-02-24T12:13:14.967Z,9.27
2024-02-24T12:15:47.429Z,8.88
2024-02-24T12:18:15.206Z,8.65
2024-02-24T12:20:49.785Z,8.57
2024-02-24T12:23:20.661Z,8.41
2024-02-24T12:25:47.788Z,8.21
2024-02-24T12:28:15.232Z,8.21
2024-02-24T12:30:43.873Z,8.17
2024-02-24T12:33:18.206Z,8.07
2024-02-24T12:35:49.087Z,7.88
2024-02-24T12:38:19.107Z,7.97
2024-02-24T12:40:46.515Z,8.14
2024-02-24T12:43:13.959Z,8.31
2024-02-24T12:45:41.102Z,8.80
2024-02-24T12:48:09.209Z,9.56
2024-02-24T12:50:36.852Z,10.89
2024-02-24T12:53:09.163Z,12.25
2024-02-24T12:55:36.726Z,13.65
2024-02-24T12:58:04.480Z,14.69
2024-02-24T13:00:31.806Z,14.75
2024-02-24T13:03:01.033Z,14.37
2024-02-24T13:05:28.635Z,11.74
2024-02-24T13:07:56.180Z,10.06
2024-02-24T13:10:23.689Z,9.98
2024-02-24T13:12:50.804Z,10.59
2024-02-24T13:15:17.995Z,11.15
2024-02-24T13:17:45.386Z,10.45
2024-02-24T13:20:12.686Z,9.68
2024-02-24T13:22:42.626Z,9.48
2024-02-24T13:25:13.115Z,9.47
2024-02-24T13:27:40.280Z,10.50
2024-02-24T13:30:08.178Z,11.41
2024-02-24T13:32:35.736Z,12.04
2024-02-24T13:35:02.920Z,12.08
2024-02-24T13:37:29.897Z,12.60
2024-02-24T13:39:57.033Z,12.77
2024-02-24T13:42:24.226Z,13.45
2024-02-24T13:44:51.503Z,13.21
2024-02-24T13:47:19.571Z,13.83
2024-02-24T13:49:46.891Z,12.60
2024-02-24T13:52:13.983Z,13.12
2024-02-24T13:54:41.257Z,13.67
2024-02-24T13:57:08.697Z,14.23
2024-02-24T13:59:35.850Z,12.03
2024-02-24T14:02:03.171Z,11.47
2024-02-24T14:04:30.319Z,11.51
2024-02-24T14:06:57.826Z,11.19
2024-02-24T14:09:25.026Z,11.91
2024-02-24T14:11:54.294Z,12.71
2024-02-24T14:14:21.621Z,13.23
2024-02-24T14:16:48.847Z,13.44
2024-02-24T14:19:20.932Z,12.94
2024-02-24T14:21:49.684Z,12.77
2024-02-24T14:24:16.883Z,13.30
2024-02-24T14:26:43.948Z,13.38
2024-02-24T14:29:11.064Z,12.69
2024-02-24T14:31:38.283Z,12.60
2024-02-24T14:34:05.678Z,13.06
2024-02-24T14:36:32.917Z,13.74
2024-02-24T14:39:01.094Z,13.53
2024-02-24T14:41:28.883Z,12.81
2024-02-24T14:43:56.072Z,12.99
2024-02-24T14:46:23.180Z,12.46
2024-02-24T14:48:50.561Z,12.46
2024-02-24T14:51:19.560Z,12.41
2024-02-24T14:53:48.486Z,12.36
2024-02-24T14:56:15.508Z,12.52
2024-02-24T14:58:42.514Z,12.89
2024-02-24T15:01:11.778Z,12.25
2024-02-24T15:03:43.181Z,11.81
2024-02-24T15:06:12.538Z,11.64
2024-02-24T15:08:39.819Z,11.58
2024-02-24T15:11:07.069Z,11.66
2024-02-24T15:13:36.629Z,11.54
2024-02-24T15:16:05.001Z,11.59
2024-02-24T15:18:32.234Z,11.42
2024-02-24T15:20:59.768Z,11.49
2024-02-24T15:23:26.956Z,11.42
2024-02-24T15:25:54.077Z,11.30
2024-02-24T15:28:21.445Z,11.34
2024-02-24T15:30:48.664Z,11.28
2024-02-24T15:33:15.930Z,11.27
2024-02-24T15:35:43.740Z,11.20
2024-02-24T15:38:11.065Z,11.26
2024-02-24T15:40:41.011Z,11.20
2024-02-24T15:43:09.713Z,11.41
2024-02-24T15:45:36.951Z,11.33
2024-02-24T15:48:04.210Z,11.44
2024-02-24T15:50:31.464Z,11.39
2024-02-24T15:52:58.585Z,11.27
2024-02-24T15:55:25.755Z,11.29
2024-02-24T15:57:53.067Z,11.20
2024-02-24T16:00:21.019Z,11.20
2024-02-24T16:02:48.101Z,11.24
2024-02-24T16:05:19.483Z,11.15
2024-02-24T16:07:46.675Z,11.16
2024-02-24T16:10:13.716Z,11.09
2024-02-24T16:12:40.723Z,11.08
2024-02-24T16:15:08.134Z,11.09
2024-02-24T16:17:35.815Z,11.12
2024-02-24T16:20:03.350Z,11.17
2024-02-24T16:22:30.433Z,11.10
2024-02-24T16:24:57.587Z,11.11
2024-02-24T16:27:24.696Z,11.00
2024-02-24T16:29:51.923Z,10.99
2024-02-24T16:32:19.113Z,10.52
2024-02-24T16:34:46.640Z,10.33
2024-02-24T16:37:13.809Z,10.24
2024-02-24T16:39:40.986Z,10.34
2024-02-24T16:42:08.155Z,10.20
2024-02-24T16:44:35.262Z,10.06
2024-02-24T16:47:02.340Z,10.21
2024-02-24T16:49:31.968Z,10.33
2024-02-24T16:51:59.157Z,10.33
2024-02-24T16:54:26.408Z,10.06
2024-02-24T16:56:53.384Z,9.76
2024-02-24T16:59:20.535Z,9.79
2024-02-24T17:01:47.635Z,9.63
2024-02-24T17:04:14.763Z,9.56
2024-02-24T17:06:42.109Z,9.40
2024-02-24T17:09:10.402Z,9.34
2024-02-24T17:11:38.029Z,9.30
2024-02-24T17:14:05.177Z,9.21
2024-02-24T17:16:32.219Z,9.28
2024-02-24T17:18:59.514Z,9.19
2024-02-24T17:21:28.665Z,9.10
2024-02-24T17:23:57.155Z,9.00
2024-02-24T17:26:24.347Z,9.00
2024-02-24T17:28:52.232Z,9.05
2024-02-24T17:31:19.215Z,9.11
2024-02-24T17:33:47.601Z,8.89
2024-02-24T17:36:15.900Z,8.78
2024-02-24T17:38:43.376Z,8.92
2024-02-24T17:41:10.641Z,8.96
2024-02-24T17:43:37.944Z,9.07
2024-02-24T17:46:05.390Z,8.89
2024-02-24T17:48:34.116Z,8.71
2024-02-24T17:51:01.405Z,8.84
2024-02-24T17:53:28.668Z,8.79
2024-02-24T17:55:55.947Z,8.80
2024-02-24T17:58:32.090Z,8.47
2024-02-24T18:01:04.141Z,8.69
2024-02-24T18:03:31.265Z,8.65
2024-02-24T18:05:58.519Z,8.69
2024-02-24T18:08:25.812Z,8.61
2024-02-24T18:10:52.803Z,8.55
2024-02-24T18:13:19.921Z,8.64
2024-02-24T18:15:49.943Z,8.72
2024-02-24T18:18:18.340Z,8.66
2024-02-24T18:20:45.643Z,8.72
2024-02-24T18:23:12.836Z,8.67
2024-02-24T18:25:40.117Z,8.64
2024-02-24T18:28:07.748Z,8.55
2024-02-24T18:30:34.935Z,8.52
2024-02-24T18:33:02.416Z,8.53
2024-02-24T18:35:29.631Z,8.55
2024-02-24T18:37:56.596Z,8.52
2024-02-24T18:40:23.740Z,8.52
2024-02-24T18:42:50.738Z,8.38
2024-02-24T18:45:17.845Z,8.39
2024-02-24T18:47:45.064Z,8.31
2024-02-24T18:50:12.297Z,8.34
2024-02-24T18:52:39.481Z,8.30
2024-02-24T18:55:07.341Z,8.34
2024-02-24T18:57:34.520Z,8.23
2024-02-24T19:00:01.854Z,8.27
2024-02-24T19:02:29.170Z,8.25
2024-02-24T19:04:56.657Z,8.14
2024-02-24T19:07:23.896Z,8.13
2024-02-24T19:09:50.982Z,8.18
2024-02-24T19:12:18.262Z,8.12
2024-02-24T19:14:51.960Z,8.16
2024-02-24T19:17:22.519Z,8.35
2024-02-24T19:19:50.540Z,8.23
2024-02-24T19:22:17.878Z,8.14
2024-02-24T19:24:44.980Z,8.15
2024-02-24T19:27:12.145Z,8.23
2024-02-24T19:29:45.170Z,8.23
2024-02-24T19:32:13.020Z,8.16
2024-02-24T19:34:40.293Z,7.85
2024-02-24T19:37:10.847Z,7.94
2024-02-24T19:39:38.732Z,7.92
2024-02-24T19:42:06.216Z,7.91
2024-02-24T19:44:35.442Z,7.84
2024-02-24T19:47:05.977Z,8.05
2024-02-24T19:49:33.286Z,7.91
2024-02-24T19:52:00.488Z,8.07
2024-02-24T19:54:27.680Z,7.99
2024-02-24T19:56:55.016Z,8.05
2024-02-24T19:59:22.451Z,7.94
2024-02-24T20:01:51.413Z,7.91
2024-02-24T20:04:19.136Z,8.03
2024-02-24T20:06:47.338Z,8.06
2024-02-24T20:09:14.798Z,7.94
2024-02-24T20:11:41.985Z,7.86
2024-02-24T20:14:09.283Z,7.63
2024-02-24T20:16:36.396Z,7.76
2024-02-24T20:19:03.673Z,7.71
2024-02-24T20:21:31.032Z,7.75
2024-02-24T20:23:58.507Z,7.66
2024-02-24T20:26:25.925Z,7.75
2024-02-24T20:28:54.992Z,7.77
2024-02-24T20:31:22.664Z,7.84
2024-02-24T20:33:53.962Z,7.53
2024-02-24T20:36:28.054Z,7.47
2024-02-24T20:38:55.589Z,7.52
2024-02-24T20:41:25.497Z,7.53
2024-02-24T20:43:54.867Z,7.57
2024-02-24T20:46:22.247Z,7.53
2024-02-24T20:48:49.559Z,7.63
2024-02-24T20:51:16.852Z,7.83
2024-02-24T20:53:44.052Z,7.77
2024-02-24T20:56:11.109Z,7.85
2024-02-24T20:58:39.892Z,7.92
2024-02-24T21:01:07.592Z,8.00
2024-02-24T21:03:34.701Z,7.94
2024-02-24T21:06:02.211Z,8.26
2024-02-24T21:08:29.570Z,8.58
2024-02-24T21:10:56.700Z,8.77
2024-02-24T21:13:23.762Z,9.24
2024-02-24T21:15:50.924Z,9.42
2024-02-24T21:18:18.054Z,9.57
2024-02-24T21:20:45.074Z,9.79
2024-02-24T21:23:12.157Z,9.73
2024-02-24T21:25:39.255Z,9.63
2024-02-24T21:28:07.932Z,9.69
2024-02-24T21:30:35.387Z,9.78
2024-02-24T21:33:02.660Z,9.57
2024-02-24T21:35:32.918Z,9.16
2024-02-24T21:38:00.126Z,8.84
2024-02-24T21:40:27.569Z,8.59
2024-02-24T21:42:54.728Z,8.56
2024-02-24T21:45:21.980Z,8.65
2024-02-24T21:47:49.814Z,8.61
2024-02-24T21:50:17.041Z,8.49
2024-02-24T21:52:44.190Z,8.26
2024-02-24T21:55:11.290Z,8.48
2024-02-24T21:57:39.580Z,8.45
2024-02-24T22:00:07.586Z,8.41
2024-02-24T22:02:34.827Z,8.54
2024-02-24T22:05:02.031Z,9.07
2024-02-24T22:07:29.946Z,9.82
2024-02-24T22:09:57.059Z,10.26
2024-02-24T22:12:24.103Z,10.14
2024-02-24T22:14:51.171Z,10.57
2024-02-24T22:17:19.792Z,10.51
2024-02-24T22:19:46.971Z,10.45
2024-02-24T22:22:14.253Z,10.29
2024-02-24T22:24:41.348Z,10.35
2024-02-24T22:27:09.411Z,10.29
2024-02-24T22:29:36.708Z,10.25
2024-02-24T22:32:04.321Z,10.10
2024-02-24T22:34:31.553Z,9.98
2024-02-24T22:36:58.777Z,9.89
2024-02-24T22:39:25.968Z,9.79
2024-02-24T22:41:53.086Z,9.54
2024-02-24T22:44:20.533Z,9.59
2024-02-24T22:46:47.726Z,9.73
2024-02-24T22:49:15.235Z,9.55
2024-02-24T22:51:42.547Z,9.49
2024-02-24T22:54:10.041Z,9.26
2024-02-24T22:56:37.221Z,9.23
2024-02-24T22:59:04.548Z,9.10
2024-02-24T23:01:32.140Z,9.12
2024-02-24T23:04:00.210Z,8.93
2024-02-24T23:06:27.492Z,8.86
2024-02-24T23:08:54.694Z,8.82
2024-02-24T23:11:29.857Z,8.79
2024-02-24T23:14:04.264Z,8.73
2024-02-24T23:16:31.290Z,8.95
2024-02-24T23:18:59.866Z,8.93
2024-02-24T23:21:31.620Z,8.70
2024-02-24T23:23:59.144Z,8.64
2024-02-24T23:26:26.401Z,8.77
2024-02-24T23:28:53.776Z,8.49
2024-02-24T23:31:20.891Z,8.28
2024-02-24T23:33:48.259Z,8.59
2024-02-24T23:36:15.523Z,8.75
2024-02-24T23:38:44.322Z,8.81
2024-02-24T23:41:11.586Z,8.86
2024-02-24T23:43:38.520Z,8.85
2024-02-24T23:46:05.741Z,8.72
2024-02-24T23:48:43.297Z,8.59
2024-02-24T23:51:11.148Z,8.54
2024-02-24T23:53:41.416Z,8.55
2024-02-24T23:56:10.464Z,8.56
2024-02-24T23:58:37.969Z,8.59
